sensor_id;sensor_type;location;lat;lon;timestamp;P1;durP1;ratioP1;P2;durP2;ratioP2
29402;SDS011;16382;59.942;30.472;2022-08-01T00:01:36;14.52;;;7.78;;
29402;SDS011;16382;59.942;30.472;2022-08-01T00:04:03;15.02;;;7.30;;
29402;SDS011;16382;59.942;30.472;2022-08-01T00:06:31;16.02;;;7.53;;
29402;SDS011;16382;59.942;30.472;2022-08-01T00:09:01;11.63;;;6.90;;
29402;SDS011;16382;59.942;30.472;2022-08-01T00:11:28;16.20;;;7.20;;
29402;SDS011;16382;59.942;30.472;2022-08-01T00:13:55;13.27;;;6.72;;
29402;SDS011;16382;59.942;30.472;2022-08-01T00:16:22;12.63;;;6.72;;
29402;SDS011;16382;59.942;30.472;2022-08-01T00:18:51;11.65;;;7.13;;
29402;SDS011;16382;59.942;30.472;2022-08-01T00:21:19;13.50;;;7.20;;
29402;SDS011;16382;59.942;30.472;2022-08-01T00:23:46;14.23;;;6.85;;
29402;SDS011;16382;59.942;30.472;2022-08-01T00:26:13;13.30;;;7.10;;
29402;SDS011;16382;59.942;30.472;2022-08-01T00:28:41;8.45;;;6.75;;
29402;SDS011;16382;59.942;30.472;2022-08-01T00:31:08;11.15;;;6.72;;
29402;SDS011;16382;59.942;30.472;2022-08-01T00:33:35;12.32;;;6.63;;
29402;SDS011;16382;59.942;30.472;2022-08-01T00:36:04;9.88;;;6.05;;
29402;SDS011;16382;59.942;30.472;2022-08-01T00:38:31;13.13;;;6.45;;
29402;SDS011;16382;59.942;30.472;2022-08-01T00:40:58;10.55;;;7.45;;
29402;SDS011;16382;59.942;30.472;2022-08-01T00:43:26;14.15;;;7.20;;
29402;SDS011;16382;59.942;30.472;2022-08-01T00:45:53;14.93;;;6.75;;
29402;SDS011;16382;59.942;30.472;2022-08-01T00:48:20;10.05;;;6.00;;
29402;SDS011;16382;59.942;30.472;2022-08-01T00:50:47;10.30;;;6.15;;
29402;SDS011;16382;59.942;30.472;2022-08-01T00:53:16;10.25;;;6.97;;
29402;SDS011;16382;59.942;30.472;2022-08-01T00:55:43;11.70;;;6.93;;
29402;SDS011;16382;59.942;30.472;2022-08-01T00:58:10;15.98;;;7.82;;
29402;SDS011;16382;59.942;30.472;2022-08-01T01:00:49;13.40;;;7.43;;
29402;SDS011;16382;59.942;30.472;2022-08-01T01:03:16;13.63;;;6.88;;
29402;SDS011;16382;59.942;30.472;2022-08-01T01:05:45;10.50;;;6.57;;
29402;SDS011;16382;59.942;30.472;2022-08-01T01:08:24;16.25;;;7.80;;
29402;SDS011;16382;59.942;30.472;2022-08-01T01:10:58;14.48;;;8.05;;
29402;SDS011;16382;59.942;30.472;2022-08-01T01:13:32;15.88;;;8.10;;
29402;SDS011;16382;59.942;30.472;2022-08-01T01:16:05;14.05;;;7.82;;
29402;SDS011;16382;59.942;30.472;2022-08-01T01:18:37;27.30;;;8.67;;
29402;SDS011;16382;59.942;30.472;2022-08-01T01:21:09;17.85;;;8.90;;
29402;SDS011;16382;59.942;30.472;2022-08-01T01:23:49;17.55;;;9.18;;
29402;SDS011;16382;59.942;30.472;2022-08-01T01:26:25;11.00;;;8.23;;
29402;SDS011;16382;59.942;30.472;2022-08-01T01:29:08;15.02;;;8.77;;
29402;SDS011;16382;59.942;30.472;2022-08-01T01:31:41;15.43;;;10.07;;
29402;SDS011;16382;59.942;30.472;2022-08-01T01:34:12;13.85;;;9.75;;
29402;SDS011;16382;59.942;30.472;2022-08-01T01:36:41;15.10;;;10.02;;
29402;SDS011;16382;59.942;30.472;2022-08-01T01:39:11;18.05;;;11.43;;
29402;SDS011;16382;59.942;30.472;2022-08-01T01:41:40;20.23;;;10.95;;
29402;SDS011;16382;59.942;30.472;2022-08-01T01:44:10;12.13;;;10.10;;
29402;SDS011;16382;59.942;30.472;2022-08-01T01:46:38;17.05;;;10.15;;
29402;SDS011;16382;59.942;30.472;2022-08-01T01:49:06;19.35;;;11.02;;
29402;SDS011;16382;59.942;30.472;2022-08-01T01:51:35;20.00;;;11.30;;
29402;SDS011;16382;59.942;30.472;2022-08-01T01:54:05;17.35;;;11.15;;
29402;SDS011;16382;59.942;30.472;2022-08-01T01:56:34;17.80;;;11.30;;
29402;SDS011;16382;59.942;30.472;2022-08-01T01:59:15;19.40;;;9.95;;
29402;SDS011;16382;59.942;30.472;2022-08-01T02:01:48;15.35;;;9.98;;
29402;SDS011;16382;59.942;30.472;2022-08-01T02:04:18;14.15;;;9.43;;
29402;SDS011;16382;59.942;30.472;2022-08-01T02:06:47;19.40;;;10.68;;
29402;SDS011;16382;59.942;30.472;2022-08-01T02:09:17;13.75;;;9.70;;
29402;SDS011;16382;59.942;30.472;2022-08-01T02:11:46;15.32;;;10.02;;
29402;SDS011;16382;59.942;30.472;2022-08-01T02:14:17;17.98;;;10.65;;
29402;SDS011;16382;59.942;30.472;2022-08-01T02:16:47;14.88;;;9.90;;
29402;SDS011;16382;59.942;30.472;2022-08-01T02:19:15;17.92;;;9.52;;
29402;SDS011;16382;59.942;30.472;2022-08-01T02:21:46;17.52;;;9.48;;
29402;SDS011;16382;59.942;30.472;2022-08-01T02:24:19;15.93;;;9.55;;
29402;SDS011;16382;59.942;30.472;2022-08-01T02:26:52;25.20;;;10.10;;
29402;SDS011;16382;59.942;30.472;2022-08-01T02:29:24;14.38;;;9.63;;
29402;SDS011;16382;59.942;30.472;2022-08-01T02:31:54;15.13;;;9.82;;
29402;SDS011;16382;59.942;30.472;2022-08-01T02:34:22;14.57;;;9.20;;
29402;SDS011;16382;59.942;30.472;2022-08-01T02:36:57;16.17;;;9.95;;
29402;SDS011;16382;59.942;30.472;2022-08-01T02:39:27;18.23;;;9.68;;
29402;SDS011;16382;59.942;30.472;2022-08-01T02:41:57;14.43;;;10.02;;
29402;SDS011;16382;59.942;30.472;2022-08-01T02:44:31;18.95;;;9.48;;
29402;SDS011;16382;59.942;30.472;2022-08-01T02:47:02;17.05;;;9.88;;
29402;SDS011;16382;59.942;30.472;2022-08-01T02:49:30;19.60;;;10.57;;
29402;SDS011;16382;59.942;30.472;2022-08-01T02:52:00;14.00;;;9.63;;
29402;SDS011;16382;59.942;30.472;2022-08-01T02:54:30;18.63;;;9.93;;
29402;SDS011;16382;59.942;30.472;2022-08-01T02:56:59;15.25;;;9.80;;
29402;SDS011;16382;59.942;30.472;2022-08-01T02:59:30;16.08;;;9.45;;
29402;SDS011;16382;59.942;30.472;2022-08-01T03:02:00;14.48;;;9.55;;
29402;SDS011;16382;59.942;30.472;2022-08-01T03:04:30;14.65;;;8.85;;
29402;SDS011;16382;59.942;30.472;2022-08-01T03:07:02;14.52;;;9.05;;
29402;SDS011;16382;59.942;30.472;2022-08-01T03:09:30;13.05;;;8.45;;
29402;SDS011;16382;59.942;30.472;2022-08-01T03:12:02;19.15;;;10.18;;
29402;SDS011;16382;59.942;30.472;2022-08-01T03:14:35;14.15;;;8.95;;
29402;SDS011;16382;59.942;30.472;2022-08-01T03:17:05;17.63;;;9.25;;
29402;SDS011;16382;59.942;30.472;2022-08-01T03:19:33;14.90;;;8.68;;
29402;SDS011;16382;59.942;30.472;2022-08-01T03:22:04;19.10;;;10.00;;
29402;SDS011;16382;59.942;30.472;2022-08-01T03:24:34;17.02;;;8.73;;
29402;SDS011;16382;59.942;30.472;2022-08-01T03:27:03;23.77;;;9.10;;
29402;SDS011;16382;59.942;30.472;2022-08-01T03:29:31;19.45;;;9.38;;
29402;SDS011;16382;59.942;30.472;2022-08-01T03:32:01;13.57;;;9.18;;
29402;SDS011;16382;59.942;30.472;2022-08-01T03:34:29;16.27;;;8.55;;
29402;SDS011;16382;59.942;30.472;2022-08-01T03:36:59;21.17;;;9.10;;
29402;SDS011;16382;59.942;30.472;2022-08-01T03:39:31;17.70;;;9.95;;
29402;SDS011;16382;59.942;30.472;2022-08-01T03:42:04;22.60;;;10.23;;
29402;SDS011;16382;59.942;30.472;2022-08-01T03:44:35;19.88;;;8.85;;
29402;SDS011;16382;59.942;30.472;2022-08-01T03:47:06;28.13;;;10.73;;
29402;SDS011;16382;59.942;30.472;2022-08-01T03:49:35;17.80;;;10.52;;
29402;SDS011;16382;59.942;30.472;2022-08-01T03:52:07;26.65;;;11.00;;
29402;SDS011;16382;59.942;30.472;2022-08-01T03:54:36;19.33;;;10.57;;
29402;SDS011;16382;59.942;30.472;2022-08-01T03:57:06;20.40;;;10.65;;
29402;SDS011;16382;59.942;30.472;2022-08-01T03:59:35;20.38;;;10.43;;
29402;SDS011;16382;59.942;30.472;2022-08-01T04:02:03;23.33;;;11.43;;
29402;SDS011;16382;59.942;30.472;2022-08-01T04:04:32;23.08;;;12.43;;
29402;SDS011;16382;59.942;30.472;2022-08-01T04:07:00;20.00;;;11.40;;
29402;SDS011;16382;59.942;30.472;2022-08-01T04:09:31;21.75;;;10.48;;
29402;SDS011;16382;59.942;30.472;2022-08-01T04:11:59;22.98;;;11.90;;
29402;SDS011;16382;59.942;30.472;2022-08-01T04:14:26;23.33;;;11.88;;
29402;SDS011;16382;59.942;30.472;2022-08-01T04:16:54;22.60;;;12.60;;
29402;SDS011;16382;59.942;30.472;2022-08-01T04:19:23;24.55;;;12.57;;
29402;SDS011;16382;59.942;30.472;2022-08-01T04:21:51;24.42;;;13.10;;
29402;SDS011;16382;59.942;30.472;2022-08-01T04:24:22;24.05;;;12.50;;
29402;SDS011;16382;59.942;30.472;2022-08-01T04:26:53;32.75;;;14.50;;
29402;SDS011;16382;59.942;30.472;2022-08-01T04:29:21;32.45;;;14.20;;
29402;SDS011;16382;59.942;30.472;2022-08-01T04:31:49;30.10;;;13.95;;
29402;SDS011;16382;59.942;30.472;2022-08-01T04:34:22;33.03;;;12.45;;
29402;SDS011;16382;59.942;30.472;2022-08-01T04:36:52;25.27;;;12.02;;
29402;SDS011;16382;59.942;30.472;2022-08-01T04:39:26;27.20;;;12.13;;
29402;SDS011;16382;59.942;30.472;2022-08-01T04:41:57;25.77;;;12.20;;
29402;SDS011;16382;59.942;30.472;2022-08-01T04:44:28;28.95;;;11.98;;
29402;SDS011;16382;59.942;30.472;2022-08-01T04:46:58;23.48;;;12.48;;
29402;SDS011;16382;59.942;30.472;2022-08-01T04:49:27;31.38;;;12.63;;
29402;SDS011;16382;59.942;30.472;2022-08-01T04:51:56;23.33;;;10.50;;
29402;SDS011;16382;59.942;30.472;2022-08-01T04:54:25;17.60;;;9.70;;
29402;SDS011;16382;59.942;30.472;2022-08-01T04:56:53;19.70;;;9.88;;
29402;SDS011;16382;59.942;30.472;2022-08-01T04:59:25;16.77;;;8.98;;
29402;SDS011;16382;59.942;30.472;2022-08-01T05:02:08;16.52;;;9.38;;
29402;SDS011;16382;59.942;30.472;2022-08-01T05:04:38;18.23;;;8.95;;
29402;SDS011;16382;59.942;30.472;2022-08-01T05:07:06;19.08;;;7.75;;
29402;SDS011;16382;59.942;30.472;2022-08-01T05:09:34;17.20;;;7.50;;
29402;SDS011;16382;59.942;30.472;2022-08-01T05:12:02;15.07;;;7.88;;
29402;SDS011;16382;59.942;30.472;2022-08-01T05:14:32;14.50;;;7.53;;
29402;SDS011;16382;59.942;30.472;2022-08-01T05:16:59;13.93;;;7.63;;
29402;SDS011;16382;59.942;30.472;2022-08-01T05:19:28;12.80;;;7.55;;
29402;SDS011;16382;59.942;30.472;2022-08-01T05:21:58;16.23;;;8.13;;
29402;SDS011;16382;59.942;30.472;2022-08-01T05:24:26;10.43;;;6.38;;
29402;SDS011;16382;59.942;30.472;2022-08-01T05:26:54;13.80;;;6.90;;
29402;SDS011;16382;59.942;30.472;2022-08-01T05:29:22;13.88;;;7.18;;
29402;SDS011;16382;59.942;30.472;2022-08-01T05:31:49;13.05;;;5.75;;
29402;SDS011;16382;59.942;30.472;2022-08-01T05:34:16;10.95;;;6.13;;
29402;SDS011;16382;59.942;30.472;2022-08-01T05:36:43;17.60;;;6.88;;
29402;SDS011;16382;59.942;30.472;2022-08-01T05:39:12;13.57;;;6.55;;
29402;SDS011;16382;59.942;30.472;2022-08-01T05:41:40;11.77;;;5.35;;
29402;SDS011;16382;59.942;30.472;2022-08-01T05:44:09;10.10;;;6.05;;
29402;SDS011;16382;59.942;30.472;2022-08-01T05:46:36;19.25;;;5.93;;
29402;SDS011;16382;59.942;30.472;2022-08-01T05:49:05;13.07;;;5.97;;
29402;SDS011;16382;59.942;30.472;2022-08-01T05:51:32;10.75;;;5.20;;
29402;SDS011;16382;59.942;30.472;2022-08-01T05:54:00;12.65;;;5.28;;
29402;SDS011;16382;59.942;30.472;2022-08-01T05:56:29;14.05;;;6.53;;
29402;SDS011;16382;59.942;30.472;2022-08-01T05:58:56;14.38;;;5.70;;
29402;SDS011;16382;59.942;30.472;2022-08-01T06:01:23;16.75;;;6.10;;
29402;SDS011;16382;59.942;30.472;2022-08-01T06:03:50;14.90;;;5.40;;
29402;SDS011;16382;59.942;30.472;2022-08-01T06:06:19;12.50;;;5.95;;
29402;SDS011;16382;59.942;30.472;2022-08-01T06:08:47;15.38;;;6.25;;
29402;SDS011;16382;59.942;30.472;2022-08-01T06:11:14;16.65;;;7.22;;
29402;SDS011;16382;59.942;30.472;2022-08-01T06:13:43;13.65;;;6.10;;
29402;SDS011;16382;59.942;30.472;2022-08-01T06:16:11;15.35;;;6.95;;
29402;SDS011;16382;59.942;30.472;2022-08-01T06:18:38;15.15;;;6.43;;
29402;SDS011;16382;59.942;30.472;2022-08-01T06:21:05;14.50;;;6.30;;
29402;SDS011;16382;59.942;30.472;2022-08-01T06:23:33;13.00;;;6.18;;
29402;SDS011;16382;59.942;30.472;2022-08-01T06:26:00;15.18;;;7.60;;
29402;SDS011;16382;59.942;30.472;2022-08-01T06:28:27;12.50;;;6.57;;
29402;SDS011;16382;59.942;30.472;2022-08-01T06:30:56;9.48;;;5.68;;
29402;SDS011;16382;59.942;30.472;2022-08-01T06:33:25;14.38;;;5.45;;
29402;SDS011;16382;59.942;30.472;2022-08-01T06:35:52;16.25;;;6.50;;
29402;SDS011;16382;59.942;30.472;2022-08-01T06:38:20;14.55;;;5.47;;
29402;SDS011;16382;59.942;30.472;2022-08-01T06:40:47;15.15;;;6.45;;
29402;SDS011;16382;59.942;30.472;2022-08-01T06:43:15;12.50;;;5.72;;
29402;SDS011;16382;59.942;30.472;2022-08-01T06:45:43;12.73;;;5.75;;
29402;SDS011;16382;59.942;30.472;2022-08-01T06:48:12;15.80;;;5.93;;
29402;SDS011;16382;59.942;30.472;2022-08-01T06:50:39;19.75;;;7.25;;
29402;SDS011;16382;59.942;30.472;2022-08-01T06:53:06;20.42;;;7.43;;
29402;SDS011;16382;59.942;30.472;2022-08-01T06:55:34;19.50;;;6.75;;
29402;SDS011;16382;59.942;30.472;2022-08-01T06:58:02;15.63;;;7.55;;
29402;SDS011;16382;59.942;30.472;2022-08-01T07:00:30;23.42;;;7.35;;
29402;SDS011;16382;59.942;30.472;2022-08-01T07:02:58;18.58;;;7.95;;
29402;SDS011;16382;59.942;30.472;2022-08-01T07:05:26;23.67;;;8.05;;
29402;SDS011;16382;59.942;30.472;2022-08-01T07:07:56;25.63;;;8.57;;
29402;SDS011;16382;59.942;30.472;2022-08-01T07:10:24;22.50;;;8.45;;
29402;SDS011;16382;59.942;30.472;2022-08-01T07:12:51;16.45;;;7.28;;
29402;SDS011;16382;59.942;30.472;2022-08-01T07:15:19;21.33;;;8.30;;
29402;SDS011;16382;59.942;30.472;2022-08-01T07:17:51;18.55;;;7.40;;
29402;SDS011;16382;59.942;30.472;2022-08-01T07:20:18;18.52;;;7.03;;
29402;SDS011;16382;59.942;30.472;2022-08-01T07:22:47;20.70;;;7.68;;
29402;SDS011;16382;59.942;30.472;2022-08-01T07:25:14;20.42;;;7.43;;
29402;SDS011;16382;59.942;30.472;2022-08-01T07:27:41;22.38;;;7.78;;
29402;SDS011;16382;59.942;30.472;2022-08-01T07:30:10;20.25;;;8.98;;
29402;SDS011;16382;59.942;30.472;2022-08-01T07:32:37;23.35;;;7.75;;
29402;SDS011;16382;59.942;30.472;2022-08-01T07:35:06;28.33;;;9.18;;
29402;SDS011;16382;59.942;30.472;2022-08-01T07:37:35;23.15;;;7.78;;
29402;SDS011;16382;59.942;30.472;2022-08-01T07:40:08;15.82;;;6.65;;
29402;SDS011;16382;59.942;30.472;2022-08-01T07:42:38;17.48;;;6.72;;
29402;SDS011;16382;59.942;30.472;2022-08-01T07:45:09;22.73;;;6.30;;
29402;SDS011;16382;59.942;30.472;2022-08-01T07:47:37;22.60;;;5.68;;
29402;SDS011;16382;59.942;30.472;2022-08-01T07:50:04;16.20;;;5.47;;
29402;SDS011;16382;59.942;30.472;2022-08-01T07:52:33;13.90;;;5.95;;
29402;SDS011;16382;59.942;30.472;2022-08-01T07:55:00;15.93;;;5.38;;
29402;SDS011;16382;59.942;30.472;2022-08-01T07:57:29;10.05;;;4.95;;
29402;SDS011;16382;59.942;30.472;2022-08-01T07:59:57;14.45;;;5.30;;
29402;SDS011;16382;59.942;30.472;2022-08-01T08:04:56;12.43;;;5.40;;
29402;SDS011;16382;59.942;30.472;2022-08-01T08:07:24;11.80;;;4.43;;
29402;SDS011;16382;59.942;30.472;2022-08-01T08:09:51;10.90;;;4.50;;
29402;SDS011;16382;59.942;30.472;2022-08-01T08:12:18;9.98;;;4.43;;
29402;SDS011;16382;59.942;30.472;2022-08-01T08:14:47;6.55;;;3.55;;
29402;SDS011;16382;59.942;30.472;2022-08-01T08:17:15;10.32;;;4.20;;
29402;SDS011;16382;59.942;30.472;2022-08-01T08:19:42;7.68;;;3.80;;
29402;SDS011;16382;59.942;30.472;2022-08-01T08:22:09;5.15;;;3.63;;
29402;SDS011;16382;59.942;30.472;2022-08-01T08:24:37;3.63;;;3.33;;
29402;SDS011;16382;59.942;30.472;2022-08-01T08:27:04;6.35;;;4.18;;
29402;SDS011;16382;59.942;30.472;2022-08-01T08:29:32;4.10;;;3.70;;
29402;SDS011;16382;59.942;30.472;2022-08-01T08:32:01;4.65;;;3.78;;
29402;SDS011;16382;59.942;30.472;2022-08-01T08:34:29;6.97;;;2.40;;
29402;SDS011;16382;59.942;30.472;2022-08-01T08:36:57;6.80;;;3.80;;
29402;SDS011;16382;59.942;30.472;2022-08-01T08:39:25;7.63;;;2.35;;
29402;SDS011;16382;59.942;30.472;2022-08-01T08:41:55;4.55;;;2.88;;
29402;SDS011;16382;59.942;30.472;2022-08-01T08:44:23;4.65;;;2.33;;
29402;SDS011;16382;59.942;30.472;2022-08-01T08:46:51;3.05;;;2.00;;
29402;SDS011;16382;59.942;30.472;2022-08-01T08:49:23;5.05;;;1.75;;
29402;SDS011;16382;59.942;30.472;2022-08-01T08:51:52;4.10;;;2.13;;
29402;SDS011;16382;59.942;30.472;2022-08-01T08:54:24;6.53;;;1.92;;
29402;SDS011;16382;59.942;30.472;2022-08-01T08:56:53;4.40;;;1.55;;
29402;SDS011;16382;59.942;30.472;2022-08-01T08:59:21;8.73;;;2.63;;
29402;SDS011;16382;59.942;30.472;2022-08-01T09:01:49;5.90;;;2.17;;
29402;SDS011;16382;59.942;30.472;2022-08-01T09:04:16;5.53;;;2.40;;
